Lutsen, MN

1:51 AM CDT on August 30, 2014 (GMT -0500)
SundewTech | Change Station
CLOSE
Current Station
Personal Weather Station
Location: Grand Marais, MN
Elevation: 676 ft
Nearby Weather Stations

Elev 676 ft 47.75 °N, 90.34 °W | Updated 21 seconds ago

Partly Cloudy
Partly Cloudy
59.7 °F
Feels Like 59.7 °F
N
0.0
Wind Variable Wind from NNW
Gusts 0.0 mph

Today
High -- | Low -- °F
--% Chance of Precip.
Yesterday
High -- | Low -- °F
Precip. -- in
6:18 AM 7:46 PM
Waxing Crescent, 19% visible
Pressure 29.81 in
Visibility 10.0 miles
Clouds Clear
Dew Point 59 °F
Humidity 98%
Rainfall 0.00 in
Snow Depth Not available.
UV 0 out of 12
Pollen 3.10 out of 12
Air Quality Not available.
Flu Activity Not available.
METAR KCKC 300634Z AUTO 00000KT 10SM CLR 13/11 A2981 RMK AO2

More Conditions Fewer Conditions

Pressure 29.81 in
Visibility 10.0 miles
Clouds Clear
Dew Point 59 °F
Humidity 98%
Rainfall 0.00 in
Snow Depth Not available.
UV 0 out of 12
Pollen 3.10 out of 12
Air Quality Not available.
Flu Activity Not available.
METAR KCKC 300634Z AUTO 00000KT 10SM CLR 13/11 A2981 RMK AO2

More Conditions Fewer Conditions

10-Day Weather Forecast

Almanac

Astronomy

Aug. 30, 2014 Rise Set
Actual Time 6:18 AM CDT 7:46 PM CDT
Civil Twilight 5:46 AM CDT 8:19 PM CDT
Nautical Twilight 5:06 AM CDT 8:57 PM CDT
Astronomical Twilight 4:24 AM CDT 9:39 PM CDT
Moon 11:29 AM CDT 9:57 PM CDT
Length of Visible Light 14h 32m
Length of Day
13h 28m
Tomorrow will be 3m 18s shorter.
Waxing Crescent, 19% of the Moon is Illuminated
Today
Waxing Crescent
Sep 2
First Quarter
Sep 8
Full
Sep 15
Last Quarter
Sep 24
New

Today's Extremes

State Highs State Lows

Community

WunderPhotos

Upload Photos

1,748,462 photos uploaded!

Nearby

Snow Depth

Station Depth Elevation
No new snow has been reported.

Earthquake Activity

City Distance Mag. Time & Date
No recent earthquake activity has been reported nearby.
Minimum magnitude displayed is 2.5.

Coastal Water Temperatures

Place Temperature
Duluth, MN 64.9 °F

Nearby Weather Stations